sensor_id;sensor_type;location;lat;lon;timestamp;temperature;humidity
78490;DHT22;67776;52.012;4.736;2023-04-03T00:00:12;4.97;71.49
78490;DHT22;67776;52.012;4.736;2023-04-03T00:02:38;4.91;72.15
78490;DHT22;67776;52.012;4.736;2023-04-03T00:05:03;5.02;72.42
78490;DHT22;67776;52.012;4.736;2023-04-03T00:07:29;4.91;72.19
78490;DHT22;67776;52.012;4.736;2023-04-03T00:09:55;4.99;72.02
78490;DHT22;67776;52.012;4.736;2023-04-03T00:12:20;4.85;71.96
78490;DHT22;67776;52.012;4.736;2023-04-03T00:14:46;4.73;72.17
78490;DHT22;67776;52.012;4.736;2023-04-03T00:17:11;4.80;72.01
78490;DHT22;67776;52.012;4.736;2023-04-03T00:19:36;4.79;72.38
78490;DHT22;67776;52.012;4.736;2023-04-03T00:22:02;4.73;71.81
78490;DHT22;67776;52.012;4.736;2023-04-03T00:24:27;4.74;72.12
78490;DHT22;67776;52.012;4.736;2023-04-03T00:26:52;4.76;71.35
78490;DHT22;67776;52.012;4.736;2023-04-03T00:29:18;4.62;72.01
78490;DHT22;67776;52.012;4.736;2023-04-03T00:31:43;4.53;71.68
78490;DHT22;67776;52.012;4.736;2023-04-03T00:34:08;4.46;71.46
78490;DHT22;67776;52.012;4.736;2023-04-03T00:36:34;4.52;72.23
78490;DHT22;67776;52.012;4.736;2023-04-03T00:38:59;4.56;71.99
78490;DHT22;67776;52.012;4.736;2023-04-03T00:41:24;4.54;71.79
78490;DHT22;67776;52.012;4.736;2023-04-03T00:43:50;4.38;72.59
78490;DHT22;67776;52.012;4.736;2023-04-03T00:46:15;4.28;73.57
78490;DHT22;67776;52.012;4.736;2023-04-03T00:48:44;4.32;73.01
78490;DHT22;67776;52.012;4.736;2023-04-03T00:51:13;4.24;73.46
78490;DHT22;67776;52.012;4.736;2023-04-03T00:53:44;4.32;73.06
78490;DHT22;67776;52.012;4.736;2023-04-03T00:56:13;4.36;72.51
78490;DHT22;67776;52.012;4.736;2023-04-03T00:58:46;4.24;73.89
78490;DHT22;67776;52.012;4.736;2023-04-03T01:01:16;4.33;72.91
78490;DHT22;67776;52.012;4.736;2023-04-03T01:03:44;4.25;73.08
78490;DHT22;67776;52.012;4.736;2023-04-03T01:06:10;4.31;72.63
78490;DHT22;67776;52.012;4.736;2023-04-03T01:08:35;4.26;72.76
78490;DHT22;67776;52.012;4.736;2023-04-03T01:11:01;4.19;73.31
78490;DHT22;67776;52.012;4.736;2023-04-03T01:13:29;4.15;73.46
78490;DHT22;67776;52.012;4.736;2023-04-03T01:15:54;4.11;73.35
78490;DHT22;67776;52.012;4.736;2023-04-03T01:18:22;4.04;72.82
78490;DHT22;67776;52.012;4.736;2023-04-03T01:25:51;3.90;75.55
78490;DHT22;67776;52.012;4.736;2023-04-03T01:28:19;3.90;73.84
78490;DHT22;67776;52.012;4.736;2023-04-03T01:30:56;3.86;73.23
78490;DHT22;67776;52.012;4.736;2023-04-03T01:33:24;3.95;73.27
78490;DHT22;67776;52.012;4.736;2023-04-03T01:35:50;3.87;73.78
78490;DHT22;67776;52.012;4.736;2023-04-03T01:38:15;3.91;73.94
78490;DHT22;67776;52.012;4.736;2023-04-03T01:40:41;3.95;73.22
78490;DHT22;67776;52.012;4.736;2023-04-03T01:43:06;3.94;74.37
78490;DHT22;67776;52.012;4.736;2023-04-03T01:45:32;3.77;74.90
78490;DHT22;67776;52.012;4.736;2023-04-03T01:47:57;3.83;74.15
78490;DHT22;67776;52.012;4.736;2023-04-03T01:50:22;3.86;73.72
78490;DHT22;67776;52.012;4.736;2023-04-03T01:52:48;3.63;74.36
78490;DHT22;67776;52.012;4.736;2023-04-03T01:55:13;3.63;76.39
78490;DHT22;67776;52.012;4.736;2023-04-03T01:57:39;3.55;75.33
78490;DHT22;67776;52.012;4.736;2023-04-03T02:00:05;3.70;74.61
78490;DHT22;67776;52.012;4.736;2023-04-03T02:02:30;3.55;75.74
78490;DHT22;67776;52.012;4.736;2023-04-03T02:04:55;3.50;76.13
78490;DHT22;67776;52.012;4.736;2023-04-03T02:07:21;3.44;76.30
78490;DHT22;67776;52.012;4.736;2023-04-03T02:09:46;3.43;76.28
78490;DHT22;67776;52.012;4.736;2023-04-03T02:12:11;3.36;75.70
78490;DHT22;67776;52.012;4.736;2023-04-03T02:14:37;3.22;76.67
78490;DHT22;67776;52.012;4.736;2023-04-03T02:17:02;3.21;77.80
78490;DHT22;67776;52.012;4.736;2023-04-03T02:19:34;3.31;77.30
78490;DHT22;67776;52.012;4.736;2023-04-03T02:21:59;3.39;76.83
78490;DHT22;67776;52.012;4.736;2023-04-03T02:24:24;3.38;76.73
78490;DHT22;67776;52.012;4.736;2023-04-03T02:26:50;3.35;76.96
78490;DHT22;67776;52.012;4.736;2023-04-03T02:29:15;3.26;77.11
78490;DHT22;67776;52.012;4.736;2023-04-03T02:31:41;3.31;76.69
78490;DHT22;67776;52.012;4.736;2023-04-03T02:34:06;3.22;76.60
78490;DHT22;67776;52.012;4.736;2023-04-03T02:36:31;3.29;76.59
78490;DHT22;67776;52.012;4.736;2023-04-03T02:38:57;3.25;76.73
78490;DHT22;67776;52.012;4.736;2023-04-03T02:41:22;3.24;77.45
78490;DHT22;67776;52.012;4.736;2023-04-03T02:43:47;3.25;78.08
78490;DHT22;67776;52.012;4.736;2023-04-03T02:46:13;3.08;78.63
78490;DHT22;67776;52.012;4.736;2023-04-03T02:48:40;3.14;77.60
78490;DHT22;67776;52.012;4.736;2023-04-03T02:51:05;3.18;77.05
78490;DHT22;67776;52.012;4.736;2023-04-03T02:53:31;3.14;77.13
78490;DHT22;67776;52.012;4.736;2023-04-03T02:55:56;3.21;76.81
78490;DHT22;67776;52.012;4.736;2023-04-03T02:58:21;3.22;76.80
78490;DHT22;67776;52.012;4.736;2023-04-03T03:00:47;3.18;77.22
78490;DHT22;67776;52.012;4.736;2023-04-03T03:03:12;3.09;77.67
78490;DHT22;67776;52.012;4.736;2023-04-03T03:05:39;3.09;78.10
78490;DHT22;67776;52.012;4.736;2023-04-03T03:08:04;3.03;77.85
78490;DHT22;67776;52.012;4.736;2023-04-03T03:10:29;3.08;77.57
78490;DHT22;67776;52.012;4.736;2023-04-03T03:12:55;3.11;77.24
78490;DHT22;67776;52.012;4.736;2023-04-03T03:15:20;3.15;77.16
78490;DHT22;67776;52.012;4.736;2023-04-03T03:17:46;3.09;78.03
78490;DHT22;67776;52.012;4.736;2023-04-03T03:20:12;3.11;77.05
78490;DHT22;67776;52.012;4.736;2023-04-03T03:22:40;3.11;77.47
78490;DHT22;67776;52.012;4.736;2023-04-03T03:25:05;3.01;77.88
78490;DHT22;67776;52.012;4.736;2023-04-03T03:27:31;3.05;77.53
78490;DHT22;67776;52.012;4.736;2023-04-03T03:29:56;3.05;77.94
78490;DHT22;67776;52.012;4.736;2023-04-03T03:32:21;3.03;77.75
78490;DHT22;67776;52.012;4.736;2023-04-03T03:34:47;3.04;77.85
78490;DHT22;67776;52.012;4.736;2023-04-03T03:37:12;3.03;78.04
78490;DHT22;67776;52.012;4.736;2023-04-03T03:39:37;3.01;77.64
78490;DHT22;67776;52.012;4.736;2023-04-03T03:42:03;3.00;78.44
78490;DHT22;67776;52.012;4.736;2023-04-03T03:44:28;2.81;79.02
78490;DHT22;67776;52.012;4.736;2023-04-03T03:46:56;2.80;78.68
78490;DHT22;67776;52.012;4.736;2023-04-03T03:49:22;2.87;78.55
78490;DHT22;67776;52.012;4.736;2023-04-03T03:51:47;2.86;78.42
78490;DHT22;67776;52.012;4.736;2023-04-03T03:54:13;2.84;78.80
78490;DHT22;67776;52.012;4.736;2023-04-03T03:56:38;2.90;78.73
78490;DHT22;67776;52.012;4.736;2023-04-03T03:59:04;2.87;78.56
78490;DHT22;67776;52.012;4.736;2023-04-03T04:01:30;2.91;78.48
78490;DHT22;67776;52.012;4.736;2023-04-03T04:03:55;2.87;78.68
78490;DHT22;67776;52.012;4.736;2023-04-03T04:06:21;2.86;78.93
78490;DHT22;67776;52.012;4.736;2023-04-03T04:08:46;2.77;78.93
78490;DHT22;67776;52.012;4.736;2023-04-03T04:11:12;2.63;80.06
78490;DHT22;67776;52.012;4.736;2023-04-03T04:13:37;2.77;79.39
78490;DHT22;67776;52.012;4.736;2023-04-03T04:16:02;2.81;79.09
78490;DHT22;67776;52.012;4.736;2023-04-03T04:18:28;2.83;79.28
78490;DHT22;67776;52.012;4.736;2023-04-03T04:20:53;2.75;80.01
78490;DHT22;67776;52.012;4.736;2023-04-03T04:23:18;2.70;79.22
78490;DHT22;67776;52.012;4.736;2023-04-03T04:25:45;2.67;79.80
78490;DHT22;67776;52.012;4.736;2023-04-03T04:28:11;2.63;79.74
78490;DHT22;67776;52.012;4.736;2023-04-03T04:30:37;2.64;79.66
78490;DHT22;67776;52.012;4.736;2023-04-03T04:33:03;2.67;79.76
78490;DHT22;67776;52.012;4.736;2023-04-03T04:35:28;2.67;79.76
78490;DHT22;67776;52.012;4.736;2023-04-03T04:37:54;2.54;80.92
78490;DHT22;67776;52.012;4.736;2023-04-03T04:40:19;2.50;80.86
78490;DHT22;67776;52.012;4.736;2023-04-03T04:42:45;2.56;80.15
78490;DHT22;67776;52.012;4.736;2023-04-03T04:45:10;2.50;80.43
78490;DHT22;67776;52.012;4.736;2023-04-03T04:47:35;2.42;80.85
78490;DHT22;67776;52.012;4.736;2023-04-03T04:50:01;2.42;80.55
78490;DHT22;67776;52.012;4.736;2023-04-03T04:52:26;2.49;80.29
78490;DHT22;67776;52.012;4.736;2023-04-03T04:54:51;2.43;79.96
78490;DHT22;67776;52.012;4.736;2023-04-03T04:57:17;2.39;80.61
78490;DHT22;67776;52.012;4.736;2023-04-03T04:59:42;2.42;80.26
78490;DHT22;67776;52.012;4.736;2023-04-03T05:02:07;2.36;80.85
78490;DHT22;67776;52.012;4.736;2023-04-03T05:04:33;2.32;81.23
78490;DHT22;67776;52.012;4.736;2023-04-03T05:06:58;2.26;81.21
78490;DHT22;67776;52.012;4.736;2023-04-03T05:09:24;2.28;81.23
78490;DHT22;67776;52.012;4.736;2023-04-03T05:11:49;2.33;80.61
78490;DHT22;67776;52.012;4.736;2023-04-03T05:14:15;2.39;80.50
78490;DHT22;67776;52.012;4.736;2023-04-03T05:16:41;2.35;80.86
78490;DHT22;67776;52.012;4.736;2023-04-03T05:19:06;2.36;81.26
78490;DHT22;67776;52.012;4.736;2023-04-03T05:21:32;2.33;80.67
78490;DHT22;67776;52.012;4.736;2023-04-03T05:23:58;2.36;80.99
78490;DHT22;67776;52.012;4.736;2023-04-03T05:26:25;2.25;81.74
78490;DHT22;67776;52.012;4.736;2023-04-03T05:28:51;2.28;81.34
78490;DHT22;67776;52.012;4.736;2023-04-03T05:31:16;2.33;81.35
78490;DHT22;67776;52.012;4.736;2023-04-03T05:33:42;2.38;81.04
78490;DHT22;67776;52.012;4.736;2023-04-03T05:36:07;2.18;82.66
78490;DHT22;67776;52.012;4.736;2023-04-03T05:38:33;2.22;81.98
78490;DHT22;67776;52.012;4.736;2023-04-03T05:40:59;2.08;82.84
78490;DHT22;67776;52.012;4.736;2023-04-03T05:43:24;2.15;83.10
78490;DHT22;67776;52.012;4.736;2023-04-03T05:45:51;2.14;82.91
78490;DHT22;67776;52.012;4.736;2023-04-03T05:48:16;2.12;82.48
78490;DHT22;67776;52.012;4.736;2023-04-03T05:50:41;2.25;82.16
78490;DHT22;67776;52.012;4.736;2023-04-03T05:53:19;2.15;82.44
78490;DHT22;67776;52.012;4.736;2023-04-03T05:55:46;2.24;83.09
78490;DHT22;67776;52.012;4.736;2023-04-03T05:58:12;2.26;81.74
78490;DHT22;67776;52.012;4.736;2023-04-03T06:00:37;2.24;82.27
78490;DHT22;67776;52.012;4.736;2023-04-03T06:03:03;2.18;82.47
78490;DHT22;67776;52.012;4.736;2023-04-03T06:05:28;2.21;82.85
78490;DHT22;67776;52.012;4.736;2023-04-03T06:07:54;2.22;83.13
78490;DHT22;67776;52.012;4.736;2023-04-03T06:10:19;2.21;83.56
78490;DHT22;67776;52.012;4.736;2023-04-03T06:12:45;2.24;82.48
78490;DHT22;67776;52.012;4.736;2023-04-03T06:15:10;2.31;83.01
78490;DHT22;67776;52.012;4.736;2023-04-03T06:17:37;2.31;82.09
78490;DHT22;67776;52.012;4.736;2023-04-03T06:20:03;2.39;82.01
78490;DHT22;67776;52.012;4.736;2023-04-03T06:22:29;2.42;81.93
78490;DHT22;67776;52.012;4.736;2023-04-03T06:24:55;2.49;82.62
78490;DHT22;67776;52.012;4.736;2023-04-03T06:27:21;2.49;82.00
78490;DHT22;67776;52.012;4.736;2023-04-03T06:29:46;2.54;81.65
78490;DHT22;67776;52.012;4.736;2023-04-03T06:32:12;2.59;81.66
78490;DHT22;67776;52.012;4.736;2023-04-03T06:34:37;2.61;80.84
78490;DHT22;67776;52.012;4.736;2023-04-03T06:37:03;2.67;82.00
78490;DHT22;67776;52.012;4.736;2023-04-03T06:39:28;2.70;81.53
78490;DHT22;67776;52.012;4.736;2023-04-03T06:41:54;2.80;81.83
78490;DHT22;67776;52.012;4.736;2023-04-03T06:44:20;2.86;82.15
78490;DHT22;67776;52.012;4.736;2023-04-03T06:46:45;2.90;80.99
78490;DHT22;67776;52.012;4.736;2023-04-03T06:49:11;2.96;80.94
78490;DHT22;67776;52.012;4.736;2023-04-03T06:51:38;2.98;81.91
78490;DHT22;67776;52.012;4.736;2023-04-03T06:54:05;3.04;80.59
78490;DHT22;67776;52.012;4.736;2023-04-03T06:56:31;3.03;79.91
78490;DHT22;67776;52.012;4.736;2023-04-03T06:58:57;3.18;80.22
78490;DHT22;67776;52.012;4.736;2023-04-03T07:01:24;3.19;79.47
78490;DHT22;67776;52.012;4.736;2023-04-03T07:03:51;3.24;79.27
78490;DHT22;67776;52.012;4.736;2023-04-03T07:06:17;3.32;78.77
78490;DHT22;67776;52.012;4.736;2023-04-03T07:08:43;3.33;78.03
78490;DHT22;67776;52.012;4.736;2023-04-03T07:11:10;3.43;78.23
78490;DHT22;67776;52.012;4.736;2023-04-03T07:13:37;3.43;76.77
78490;DHT22;67776;52.012;4.736;2023-04-03T07:16:03;3.50;77.15
78490;DHT22;67776;52.012;4.736;2023-04-03T07:18:30;3.55;76.11
78490;DHT22;67776;52.012;4.736;2023-04-03T07:20:55;3.66;76.22
78490;DHT22;67776;52.012;4.736;2023-04-03T07:23:21;3.60;75.74
78490;DHT22;67776;52.012;4.736;2023-04-03T07:25:48;3.69;75.64
78490;DHT22;67776;52.012;4.736;2023-04-03T07:28:14;3.70;76.37
78490;DHT22;67776;52.012;4.736;2023-04-03T07:31:00;3.76;75.03
78490;DHT22;67776;52.012;4.736;2023-04-03T07:33:25;3.80;75.17
78490;DHT22;67776;52.012;4.736;2023-04-03T07:35:51;3.90;74.84
78490;DHT22;67776;52.012;4.736;2023-04-03T07:38:16;3.97;75.29
78490;DHT22;67776;52.012;4.736;2023-04-03T07:40:49;4.04;74.82
78490;DHT22;67776;52.012;4.736;2023-04-03T07:43:16;4.09;73.90
78490;DHT22;67776;52.012;4.736;2023-04-03T07:45:42;4.15;73.94
78490;DHT22;67776;52.012;4.736;2023-04-03T07:48:09;4.26;72.79
78490;DHT22;67776;52.012;4.736;2023-04-03T07:50:34;4.26;72.37
78490;DHT22;67776;52.012;4.736;2023-04-03T07:53:01;4.33;72.76
78490;DHT22;67776;52.012;4.736;2023-04-03T07:55:26;4.42;72.32
78490;DHT22;67776;52.012;4.736;2023-04-03T07:57:52;4.49;72.67
78490;DHT22;67776;52.012;4.736;2023-04-03T08:00:18;4.52;71.30
78490;DHT22;67776;52.012;4.736;2023-04-03T08:02:44;4.54;70.25
78490;DHT22;67776;52.012;4.736;2023-04-03T08:05:15;4.56;70.90
78490;DHT22;67776;52.012;4.736;2023-04-03T08:07:40;4.67;71.69
78490;DHT22;67776;52.012;4.736;2023-04-03T08:10:06;4.71;71.49
78490;DHT22;67776;52.012;4.736;2023-04-03T08:12:31;4.81;72.46
78490;DHT22;67776;52.012;4.736;2023-04-03T08:14:57;4.85;70.36
78490;DHT22;67776;52.012;4.736;2023-04-03T08:17:22;4.87;71.00
78490;DHT22;67776;52.012;4.736;2023-04-03T08:19:48;4.97;70.50
78490;DHT22;67776;52.012;4.736;2023-04-03T08:22:13;5.08;70.74
78490;DHT22;67776;52.012;4.736;2023-04-03T08:24:38;5.05;69.54
78490;DHT22;67776;52.012;4.736;2023-04-03T08:27:04;5.17;69.39
78490;DHT22;67776;52.012;4.736;2023-04-03T08:29:29;5.22;68.15
78490;DHT22;67776;52.012;4.736;2023-04-03T08:31:55;5.52;68.17
78490;DHT22;67776;52.012;4.736;2023-04-03T08:34:20;5.52;67.94
78490;DHT22;67776;52.012;4.736;2023-04-03T08:36:46;5.62;65.46
78490;DHT22;67776;52.012;4.736;2023-04-03T08:39:12;5.64;64.98
78490;DHT22;67776;52.012;4.736;2023-04-03T08:41:44;5.78;66.04
78490;DHT22;67776;52.012;4.736;2023-04-03T08:44:41;6.02;65.83
78490;DHT22;67776;52.012;4.736;2023-04-03T08:47:21;5.94;63.09
78490;DHT22;67776;52.012;4.736;2023-04-03T08:50:00;6.11;62.58
78490;DHT22;67776;52.012;4.736;2023-04-03T08:52:31;6.24;59.51
78490;DHT22;67776;52.012;4.736;2023-04-03T08:57:46;6.84;59.44
78490;DHT22;67776;52.012;4.736;2023-04-03T09:02:47;6.76;53.99
78490;DHT22;67776;52.012;4.736;2023-04-03T09:05:17;7.01;53.21
78490;DHT22;67776;52.012;4.736;2023-04-03T09:07:46;7.25;54.40
78490;DHT22;67776;52.012;4.736;2023-04-03T09:10:14;7.45;49.50
78490;DHT22;67776;52.012;4.736;2023-04-03T09:12:42;7.97;50.15
78490;DHT22;67776;52.012;4.736;2023-04-03T09:15:22;8.47;51.08
78490;DHT22;67776;52.012;4.736;2023-04-03T09:18:12;8.54;47.98
78490;DHT22;67776;52.012;4.736;2023-04-03T09:23:45;8.64;43.45
78490;DHT22;67776;52.012;4.736;2023-04-03T09:26:17;8.84;45.70
78490;DHT22;67776;52.012;4.736;2023-04-03T09:28:44;8.89;46.09
78490;DHT22;67776;52.012;4.736;2023-04-03T09:31:23;9.22;44.16
78490;DHT22;67776;52.012;4.736;2023-04-03T09:33:50;9.57;42.53
78490;DHT22;67776;52.012;4.736;2023-04-03T09:39:14;9.64;40.77
78490;DHT22;67776;52.012;4.736;2023-04-03T09:41:40;9.43;42.03
78490;DHT22;67776;52.012;4.736;2023-04-03T09:44:20;9.70;42.39
78490;DHT22;67776;52.012;4.736;2023-04-03T09:46:46;9.49;42.20
78490;DHT22;67776;52.012;4.736;2023-04-03T09:49:12;9.46;40.97
78490;DHT22;67776;52.012;4.736;2023-04-03T09:51:38;9.76;40.68
78490;DHT22;67776;52.012;4.736;2023-04-03T09:54:37;9.57;40.07
78490;DHT22;67776;52.012;4.736;2023-04-03T09:57:11;10.28;42.43
78490;DHT22;67776;52.012;4.736;2023-04-03T09:59:45;10.49;40.13
78490;DHT22;67776;52.012;4.736;2023-04-03T10:04:38;11.04;40.04
78490;DHT22;67776;52.012;4.736;2023-04-03T10:07:31;10.50;36.07
78490;DHT22;67776;52.012;4.736;2023-04-03T10:10:16;11.42;37.34
78490;DHT22;67776;52.012;4.736;2023-04-03T10:12:45;10.83;36.23
78490;DHT22;67776;52.012;4.736;2023-04-03T10:15:15;10.81;34.52
78490;DHT22;67776;52.012;4.736;2023-04-03T10:17:58;10.43;35.45
78490;DHT22;67776;52.012;4.736;2023-04-03T10:23:33;11.44;34.05
78490;DHT22;67776;52.012;4.736;2023-04-03T10:31:42;11.69;34.01
78490;DHT22;67776;52.012;4.736;2023-04-03T10:42:39;11.77;33.53
78490;DHT22;67776;52.012;4.736;2023-04-03T10:45:10;11.18;32.82
78490;DHT22;67776;52.012;4.736;2023-04-03T10:50:36;12.01;31.99
78490;DHT22;67776;52.012;4.736;2023-04-03T10:55:49;11.77;31.83
78490;DHT22;67776;52.012;4.736;2023-04-03T10:58:30;11.97;31.43
78490;DHT22;67776;52.012;4.736;2023-04-03T11:01:02;12.22;33.45
78490;DHT22;67776;52.012;4.736;2023-04-03T11:03:35;12.11;32.94
78490;DHT22;67776;52.012;4.736;2023-04-03T11:06:04;11.87;32.25
78490;DHT22;67776;52.012;4.736;2023-04-03T11:11:08;12.60;28.45
78490;DHT22;67776;52.012;4.736;2023-04-03T11:13:46;12.55;29.59
78490;DHT22;67776;52.012;4.736;2023-04-03T11:16:19;12.43;27.97
78490;DHT22;67776;52.012;4.736;2023-04-03T11:18:56;13.03;28.04
78490;DHT22;67776;52.012;4.736;2023-04-03T11:21:29;13.48;28.34
78490;DHT22;67776;52.012;4.736;2023-04-03T11:23:58;12.98;29.53
78490;DHT22;67776;52.012;4.736;2023-04-03T11:26:27;13.25;28.82
78490;DHT22;67776;52.012;4.736;2023-04-03T11:29:01;12.98;28.17
78490;DHT22;67776;52.012;4.736;2023-04-03T11:32:08;12.98;25.70
78490;DHT22;67776;52.012;4.736;2023-04-03T11:34:41;13.65;25.66
78490;DHT22;67776;52.012;4.736;2023-04-03T11:37:32;13.56;26.24
78490;DHT22;67776;52.012;4.736;2023-04-03T11:40:22;12.90;25.98
78490;DHT22;67776;52.012;4.736;2023-04-03T11:42:53;13.96;28.62
78490;DHT22;67776;52.012;4.736;2023-04-03T11:47:57;13.12;26.28
78490;DHT22;67776;52.012;4.736;2023-04-03T12:14:02;14.45;26.26
78490;DHT22;67776;52.012;4.736;2023-04-03T12:16:30;13.58;24.93
78490;DHT22;67776;52.012;4.736;2023-04-03T12:19:04;14.22;28.22
78490;DHT22;67776;52.012;4.736;2023-04-03T12:26:47;14.15;26.03
78490;DHT22;67776;52.012;4.736;2023-04-03T12:38:22;14.01;27.98
78490;DHT22;67776;52.012;4.736;2023-04-03T12:45:56;13.93;28.12
78490;DHT22;67776;52.012;4.736;2023-04-03T12:48:30;14.32;29.14
78490;DHT22;67776;52.012;4.736;2023-04-03T12:50:58;15.14;28.49
78490;DHT22;67776;52.012;4.736;2023-04-03T12:53:35;14.70;29.06
78490;DHT22;67776;52.012;4.736;2023-04-03T12:56:21;14.75;27.69
78490;DHT22;67776;52.012;4.736;2023-04-03T12:58:48;15.96;27.96
78490;DHT22;67776;52.012;4.736;2023-04-03T13:01:16;16.44;26.76
78490;DHT22;67776;52.012;4.736;2023-04-03T13:03:45;15.34;28.77
78490;DHT22;67776;52.012;4.736;2023-04-03T13:06:19;16.20;27.17
78490;DHT22;67776;52.012;4.736;2023-04-03T13:08:52;15.69;26.82
78490;DHT22;67776;52.012;4.736;2023-04-03T13:11:19;15.45;27.00
78490;DHT22;67776;52.012;4.736;2023-04-03T13:14:05;14.52;29.78
78490;DHT22;67776;52.012;4.736;2023-04-03T13:16:38;15.18;28.99
78490;DHT22;67776;52.012;4.736;2023-04-03T13:19:06;15.38;28.28
78490;DHT22;67776;52.012;4.736;2023-04-03T13:21:40;15.15;28.38
78490;DHT22;67776;52.012;4.736;2023-04-03T13:24:06;15.66;27.97
78490;DHT22;67776;52.012;4.736;2023-04-03T13:26:33;14.75;29.02
78490;DHT22;67776;52.012;4.736;2023-04-03T13:29:06;15.46;29.56
78490;DHT22;67776;52.012;4.736;2023-04-03T13:31:35;16.58;26.69
78490;DHT22;67776;52.012;4.736;2023-04-03T13:34:12;15.36;28.06
78490;DHT22;67776;52.012;4.736;2023-04-03T13:36:45;15.86;28.29
78490;DHT22;67776;52.012;4.736;2023-04-03T13:41:42;15.73;27.29
78490;DHT22;67776;52.012;4.736;2023-04-03T13:44:44;15.36;29.80
78490;DHT22;67776;52.012;4.736;2023-04-03T13:47:17;16.03;26.55
78490;DHT22;67776;52.012;4.736;2023-04-03T13:50:03;16.90;26.80
78490;DHT22;67776;52.012;4.736;2023-04-03T13:52:32;17.00;26.68
78490;DHT22;67776;52.012;4.736;2023-04-03T13:55:11;16.52;25.68
78490;DHT22;67776;52.012;4.736;2023-04-03T13:58:19;14.94;28.09
78490;DHT22;67776;52.012;4.736;2023-04-03T14:00:49;14.26;30.73
78490;DHT22;67776;52.012;4.736;2023-04-03T14:03:39;14.28;27.95
78490;DHT22;67776;52.012;4.736;2023-04-03T14:06:05;14.55;30.25
78490;DHT22;67776;52.012;4.736;2023-04-03T14:08:32;14.69;28.08
78490;DHT22;67776;52.012;4.736;2023-04-03T14:10:57;14.20;29.88
78490;DHT22;67776;52.012;4.736;2023-04-03T14:13:23;15.35;28.31
78490;DHT22;67776;52.012;4.736;2023-04-03T14:15:49;15.00;28.79
78490;DHT22;67776;52.012;4.736;2023-04-03T14:18:18;16.35;27.31
78490;DHT22;67776;52.012;4.736;2023-04-03T14:20:47;14.79;28.43
78490;DHT22;67776;52.012;4.736;2023-04-03T14:23:13;13.91;28.92
78490;DHT22;67776;52.012;4.736;2023-04-03T14:25:39;13.45;29.30
78490;DHT22;67776;52.012;4.736;2023-04-03T14:28:21;14.21;29.03
78490;DHT22;67776;52.012;4.736;2023-04-03T14:30:49;13.03;32.32
78490;DHT22;67776;52.012;4.736;2023-04-03T14:33:20;12.76;32.37
78490;DHT22;67776;52.012;4.736;2023-04-03T14:35:46;12.57;31.42
78490;DHT22;67776;52.012;4.736;2023-04-03T14:38:22;12.53;32.88
78490;DHT22;67776;52.012;4.736;2023-04-03T14:40:48;12.75;32.21
78490;DHT22;67776;52.012;4.736;2023-04-03T14:43:14;12.56;31.77
78490;DHT22;67776;52.012;4.736;2023-04-03T14:45:40;12.49;31.21
78490;DHT22;67776;52.012;4.736;2023-04-03T14:48:11;12.45;32.82
78490;DHT22;67776;52.012;4.736;2023-04-03T14:50:41;12.72;32.10
78490;DHT22;67776;52.012;4.736;2023-04-03T14:53:07;12.50;32.57
78490;DHT22;67776;52.012;4.736;2023-04-03T14:55:32;12.50;33.50
78490;DHT22;67776;52.012;4.736;2023-04-03T14:57:58;12.32;30.79
78490;DHT22;67776;52.012;4.736;2023-04-03T15:00:23;12.91;32.16
78490;DHT22;67776;52.012;4.736;2023-04-03T15:02:49;12.73;31.83
78490;DHT22;67776;52.012;4.736;2023-04-03T15:05:15;12.97;32.04
78490;DHT22;67776;52.012;4.736;2023-04-03T15:07:50;12.83;34.15
78490;DHT22;67776;52.012;4.736;2023-04-03T15:10:19;13.12;33.52
78490;DHT22;67776;52.012;4.736;2023-04-03T15:12:46;13.28;31.99
78490;DHT22;67776;52.012;4.736;2023-04-03T15:15:13;14.11;31.91
78490;DHT22;67776;52.012;4.736;2023-04-03T15:17:39;13.45;32.93
78490;DHT22;67776;52.012;4.736;2023-04-03T15:20:14;13.66;32.02
78490;DHT22;67776;52.012;4.736;2023-04-03T15:22:39;14.33;30.22
78490;DHT22;67776;52.012;4.736;2023-04-03T15:25:06;14.58;29.30
78490;DHT22;67776;52.012;4.736;2023-04-03T15:27:31;13.73;30.71
78490;DHT22;67776;52.012;4.736;2023-04-03T15:29:57;12.83;32.03
78490;DHT22;67776;52.012;4.736;2023-04-03T15:32:22;13.26;32.51
78490;DHT22;67776;52.012;4.736;2023-04-03T15:34:52;13.05;32.75
78490;DHT22;67776;52.012;4.736;2023-04-03T15:37:18;13.69;30.78
78490;DHT22;67776;52.012;4.736;2023-04-03T15:39:44;14.58;29.98
78490;DHT22;67776;52.012;4.736;2023-04-03T15:42:10;13.53;31.75
78490;DHT22;67776;52.012;4.736;2023-04-03T15:44:37;13.45;31.93
78490;DHT22;67776;52.012;4.736;2023-04-03T15:47:03;14.13;29.48
78490;DHT22;67776;52.012;4.736;2023-04-03T15:49:29;13.48;30.90
78490;DHT22;67776;52.012;4.736;2023-04-03T15:51:55;13.36;30.25
78490;DHT22;67776;52.012;4.736;2023-04-03T15:54:20;13.73;30.46
78490;DHT22;67776;52.012;4.736;2023-04-03T15:56:46;14.03;31.66
78490;DHT22;67776;52.012;4.736;2023-04-03T15:59:11;14.04;30.05
78490;DHT22;67776;52.012;4.736;2023-04-03T16:01:37;13.86;32.36
78490;DHT22;67776;52.012;4.736;2023-04-03T16:04:04;14.65;29.38
78490;DHT22;67776;52.012;4.736;2023-04-03T16:06:30;14.13;29.66
78490;DHT22;67776;52.012;4.736;2023-04-03T16:08:56;13.87;30.58
78490;DHT22;67776;52.012;4.736;2023-04-03T16:11:26;14.43;31.16
78490;DHT22;67776;52.012;4.736;2023-04-03T16:13:51;13.25;32.47
78490;DHT22;67776;52.012;4.736;2023-04-03T16:16:17;13.69;31.90
78490;DHT22;67776;52.012;4.736;2023-04-03T16:18:42;12.91;32.70
78490;DHT22;67776;52.012;4.736;2023-04-03T16:21:08;13.43;34.36
78490;DHT22;67776;52.012;4.736;2023-04-03T16:23:34;13.05;33.25
78490;DHT22;67776;52.012;4.736;2023-04-03T16:26:00;12.53;33.70
78490;DHT22;67776;52.012;4.736;2023-04-03T16:28:25;11.95;34.73
78490;DHT22;67776;52.012;4.736;2023-04-03T16:30:51;12.28;34.50
78490;DHT22;67776;52.012;4.736;2023-04-03T16:33:16;12.49;35.41
78490;DHT22;67776;52.012;4.736;2023-04-03T16:35:42;11.78;35.34
78490;DHT22;67776;52.012;4.736;2023-04-03T16:38:08;11.36;35.28
78490;DHT22;67776;52.012;4.736;2023-04-03T16:40:34;11.23;35.29
78490;DHT22;67776;52.012;4.736;2023-04-03T16:43:01;11.57;37.25
78490;DHT22;67776;52.012;4.736;2023-04-03T16:45:27;11.11;37.01
78490;DHT22;67776;52.012;4.736;2023-04-03T16:47:52;11.29;37.36
78490;DHT22;67776;52.012;4.736;2023-04-03T16:50:17;11.16;38.51
78490;DHT22;67776;52.012;4.736;2023-04-03T16:52:45;11.04;37.90
78490;DHT22;67776;52.012;4.736;2023-04-03T16:55:11;11.16;40.78
78490;DHT22;67776;52.012;4.736;2023-04-03T16:57:37;11.32;40.16
78490;DHT22;67776;52.012;4.736;2023-04-03T17:00:03;10.98;41.53
78490;DHT22;67776;52.012;4.736;2023-04-03T17:02:28;11.01;40.81
78490;DHT22;67776;52.012;4.736;2023-04-03T17:04:54;10.77;39.08
78490;DHT22;67776;52.012;4.736;2023-04-03T17:07:22;10.68;40.89
78490;DHT22;67776;52.012;4.736;2023-04-03T17:09:47;10.70;40.16
78490;DHT22;67776;52.012;4.736;2023-04-03T17:12:13;10.70;40.99
78490;DHT22;67776;52.012;4.736;2023-04-03T17:14:39;10.80;40.90
78490;DHT22;67776;52.012;4.736;2023-04-03T17:17:05;10.59;41.51